createdAt,value
2022-10-31T00:00:57.148Z,73.90
2022-10-31T00:03:23.861Z,74.48
2022-10-31T00:05:51.258Z,75.95
2022-10-31T00:08:18.696Z,75.72
2022-10-31T00:10:46.691Z,75.36
2022-10-31T00:13:14.717Z,76.62
2022-10-31T00:15:41.865Z,76.92
2022-10-31T00:18:10.198Z,77.26
2022-10-31T00:20:36.974Z,77.27
2022-10-31T00:23:05.519Z,78.10
2022-10-31T00:25:36.785Z,78.91
2022-10-31T00:28:04.791Z,78.56
2022-10-31T00:30:31.677Z,78.58
2022-10-31T00:32:58.574Z,77.47
2022-10-31T00:35:25.711Z,76.93
2022-10-31T00:37:53.539Z,75.01
2022-10-31T00:40:20.152Z,73.98
2022-10-31T00:42:46.743Z,73.83
2022-10-31T00:45:13.521Z,74.15
2022-10-31T00:47:40.065Z,74.31
2022-10-31T00:50:07.117Z,74.04
2022-10-31T00:52:33.989Z,73.51
2022-10-31T00:55:00.546Z,73.44
2022-10-31T00:57:27.129Z,73.13
2022-10-31T00:59:53.771Z,73.32
2022-10-31T01:02:20.521Z,72.83
2022-10-31T01:04:47.200Z,72.03
2022-10-31T01:07:15.097Z,72.47
2022-10-31T01:09:41.891Z,72.93
2022-10-31T01:12:09.137Z,72.44
2022-10-31T01:14:35.773Z,73.97
2022-10-31T01:17:02.448Z,74.84
2022-10-31T01:19:29.086Z,76.07
2022-10-31T01:21:56.589Z,76.59
2022-10-31T01:24:23.476Z,77.12
2022-10-31T01:26:50.087Z,77.77
2022-10-31T01:29:16.728Z,78.75
2022-10-31T01:31:43.352Z,79.77
2022-10-31T01:34:14.860Z,81.34
2022-10-31T01:36:42.250Z,82.41
2022-10-31T01:39:12.626Z,83.70
2022-10-31T01:41:45.595Z,83.87
2022-10-31T01:44:15.098Z,82.68
2022-10-31T01:46:57.042Z,81.70
2022-10-31T01:49:42.183Z,81.64
2022-10-31T01:52:08.671Z,81.75
2022-10-31T01:54:40.877Z,82.50
2022-10-31T01:57:08.851Z,82.39
2022-10-31T01:59:40.075Z,83.00
2022-10-31T02:02:07.550Z,82.12
2022-10-31T02:04:35.759Z,82.42
2022-10-31T02:07:09.634Z,80.97
2022-10-31T02:09:38.290Z,80.62
2022-10-31T02:12:06.787Z,80.24
2022-10-31T02:14:34.346Z,80.96
2022-10-31T02:17:00.909Z,79.73
2022-10-31T02:19:52.045Z,79.72
2022-10-31T02:22:47.720Z,79.75
2022-10-31T02:25:35.596Z,79.86
2022-10-31T02:28:11.317Z,80.38
2022-10-31T02:31:13.646Z,81.90
2022-10-31T02:33:56.782Z,83.52
2022-10-31T02:36:29.146Z,84.02
2022-10-31T02:39:10.662Z,83.62
2022-10-31T02:41:54.342Z,83.21
2022-10-31T02:44:31.724Z,84.37
2022-10-31T02:47:15.015Z,84.09
2022-10-31T02:49:50.032Z,83.53
2022-10-31T02:52:26.650Z,84.93
2022-10-31T02:54:53.400Z,85.45
2022-10-31T02:57:31.894Z,86.48
2022-10-31T03:00:03.096Z,87.74
2022-10-31T03:03:15.895Z,88.40
2022-10-31T03:06:00.328Z,88.99
2022-10-31T03:08:36.128Z,90.51
2022-10-31T03:11:06.303Z,90.85
2022-10-31T03:13:44.540Z,91.25
2022-10-31T03:16:24.886Z,92.42
2022-10-31T03:19:06.653Z,94.36
2022-10-31T03:22:08.287Z,97.82
2022-10-31T03:24:39.490Z,97.67
2022-10-31T03:27:10.988Z,99.29
2022-10-31T03:29:39.787Z,100.00
2022-10-31T03:32:08.721Z,100.00
2022-10-31T03:34:38.758Z,100.00
2022-10-31T03:37:08.703Z,100.00
2022-10-31T03:39:37.404Z,100.00
2022-10-31T03:42:10.085Z,100.00
2022-10-31T03:44:38.979Z,100.00
2022-10-31T03:47:05.903Z,100.00
2022-10-31T03:49:33.870Z,100.00
2022-10-31T03:52:14.733Z,100.00
2022-10-31T03:54:47.264Z,100.00
2022-10-31T03:57:25.473Z,100.00
2022-10-31T03:59:59.921Z,100.00
2022-10-31T04:02:32.265Z,100.00
2022-10-31T04:05:00.218Z,100.00
2022-10-31T04:07:32.521Z,100.00
2022-10-31T04:10:01.253Z,100.00
2022-10-31T04:12:30.654Z,100.00
2022-10-31T04:14:58.660Z,100.00
2022-10-31T04:17:30.600Z,100.00
2022-10-31T04:20:00.845Z,100.00
2022-10-31T04:22:27.658Z,100.00
2022-10-31T04:24:54.193Z,100.00
2022-10-31T04:27:20.824Z,100.00
2022-10-31T04:29:50.695Z,100.00
2022-10-31T04:32:17.761Z,100.00
2022-10-31T04:34:44.360Z,100.00
2022-10-31T04:37:10.941Z,100.00
2022-10-31T04:39:37.556Z,100.00
2022-10-31T04:42:04.213Z,100.00
2022-10-31T04:44:30.869Z,100.00
2022-10-31T04:46:58.593Z,100.00
2022-10-31T04:49:25.197Z,100.00
2022-10-31T04:51:51.800Z,100.00
2022-10-31T04:54:18.621Z,100.00
2022-10-31T04:56:45.297Z,100.00
2022-10-31T04:59:11.923Z,100.00
2022-10-31T05:01:38.529Z,100.00
2022-10-31T05:04:05.290Z,100.00
2022-10-31T05:06:31.996Z,100.00
2022-10-31T05:08:58.612Z,100.00
2022-10-31T05:11:25.332Z,100.00
2022-10-31T05:13:51.901Z,100.00
2022-10-31T05:16:18.746Z,100.00
2022-10-31T05:18:45.495Z,100.00
2022-10-31T05:21:12.336Z,100.00
2022-10-31T05:23:39.760Z,100.00
2022-10-31T05:26:07.607Z,100.00
2022-10-31T05:28:34.513Z,100.00
2022-10-31T05:31:01.141Z,100.00
2022-10-31T05:33:27.741Z,100.00
2022-10-31T05:35:54.341Z,100.00
2022-10-31T05:38:20.910Z,100.00
2022-10-31T05:40:47.474Z,100.00
2022-10-31T05:43:14.170Z,100.00
2022-10-31T05:45:40.730Z,100.00
2022-10-31T05:48:07.330Z,100.00
2022-10-31T05:50:33.903Z,94.09
2022-10-31T05:53:05.397Z,91.72
2022-10-31T05:55:33.259Z,87.00
2022-10-31T05:58:00.329Z,84.71
2022-10-31T06:00:28.650Z,81.85
2022-10-31T06:03:00.860Z,84.61
2022-10-31T06:05:27.977Z,77.46
2022-10-31T06:07:54.638Z,71.87
2022-10-31T06:10:21.960Z,65.20
2022-10-31T06:12:49.512Z,63.14
2022-10-31T06:15:22.593Z,62.03
2022-10-31T06:18:02.004Z,61.49
2022-10-31T06:20:29.107Z,61.75
2022-10-31T06:22:55.700Z,61.36
2022-10-31T06:25:22.387Z,62.40
2022-10-31T06:27:49.101Z,62.90
2022-10-31T06:30:15.862Z,63.98
2022-10-31T06:32:42.484Z,65.40
2022-10-31T06:35:09.367Z,67.74
2022-10-31T06:37:36.118Z,69.32
2022-10-31T06:40:02.857Z,69.30
2022-10-31T06:42:29.443Z,69.56
2022-10-31T06:44:56.079Z,69.27
2022-10-31T06:47:22.620Z,71.82
2022-10-31T06:49:49.184Z,69.93
2022-10-31T06:52:15.903Z,70.05
2022-10-31T06:54:42.574Z,70.50
2022-10-31T06:57:09.248Z,85.33
2022-10-31T06:59:35.875Z,76.16
2022-10-31T07:02:02.551Z,75.77
2022-10-31T07:04:29.433Z,76.55
2022-10-31T07:06:55.959Z,75.08
2022-10-31T07:09:22.877Z,74.51
2022-10-31T07:11:49.514Z,74.64
2022-10-31T07:14:16.204Z,74.98
2022-10-31T07:16:42.763Z,76.13
2022-10-31T07:19:09.392Z,73.59
2022-10-31T07:21:35.975Z,77.79
2022-10-31T07:24:02.595Z,74.82
2022-10-31T07:26:29.211Z,74.23
2022-10-31T07:28:55.744Z,73.21
2022-10-31T07:31:22.392Z,73.65
2022-10-31T07:33:48.941Z,69.85
2022-10-31T07:36:15.684Z,70.21
2022-10-31T07:38:42.493Z,66.95
2022-10-31T07:41:09.231Z,65.82
2022-10-31T07:43:35.832Z,65.40
2022-10-31T07:46:02.488Z,63.85
2022-10-31T07:48:29.051Z,64.77
2022-10-31T07:50:56.271Z,64.84
2022-10-31T07:53:22.892Z,65.36
2022-10-31T07:55:49.567Z,66.81
2022-10-31T07:58:17.969Z,67.85
2022-10-31T08:00:47.542Z,66.69
2022-10-31T08:03:17.148Z,66.60
2022-10-31T08:05:46.838Z,65.23
2022-10-31T08:08:14.444Z,64.15
2022-10-31T08:10:41.702Z,64.34
2022-10-31T08:13:11.292Z,63.86
2022-10-31T08:15:40.513Z,64.04
2022-10-31T08:18:11.503Z,63.19
2022-10-31T08:20:38.058Z,61.55
2022-10-31T08:23:06.284Z,62.24
2022-10-31T08:25:38.240Z,62.70
2022-10-31T08:28:06.582Z,60.78
2022-10-31T08:30:35.073Z,59.00
2022-10-31T08:33:13.509Z,58.21
2022-10-31T08:35:40.852Z,58.32
2022-10-31T08:38:09.317Z,58.26
2022-10-31T08:40:37.941Z,58.09
2022-10-31T08:43:07.993Z,57.27
2022-10-31T08:45:35.794Z,57.41
2022-10-31T08:48:05.953Z,57.42
2022-10-31T08:50:35.024Z,57.48
2022-10-31T08:53:20.488Z,58.15
2022-10-31T08:55:48.111Z,57.75
2022-10-31T08:58:17.141Z,55.58
2022-10-31T09:00:44.694Z,53.92
2022-10-31T09:03:14.054Z,53.95
2022-10-31T09:05:41.353Z,52.58
2022-10-31T09:08:14.773Z,52.26
2022-10-31T09:10:43.241Z,52.19
2022-10-31T09:13:18.672Z,52.14
2022-10-31T09:15:47.204Z,52.26
2022-10-31T09:18:15.660Z,50.52
2022-10-31T09:20:44.507Z,50.00
2022-10-31T09:23:13.334Z,50.26
2022-10-31T09:25:40.865Z,49.67
2022-10-31T09:28:09.941Z,49.46
2022-10-31T09:30:37.018Z,49.78
2022-10-31T09:33:06.151Z,49.37
2022-10-31T09:35:33.676Z,48.87
2022-10-31T09:38:09.939Z,48.88
2022-10-31T09:40:48.247Z,48.41
2022-10-31T09:43:14.745Z,47.38
2022-10-31T09:46:17.539Z,47.58
2022-10-31T09:48:56.277Z,46.46
2022-10-31T09:51:36.226Z,45.64
2022-10-31T09:54:06.820Z,45.07
2022-10-31T09:56:34.115Z,45.27
2022-10-31T09:59:03.310Z,45.17
2022-10-31T10:01:29.915Z,45.31
2022-10-31T10:04:01.657Z,44.80
2022-10-31T10:06:36.905Z,44.15
2022-10-31T10:09:04.008Z,43.95
2022-10-31T10:11:41.437Z,43.73
2022-10-31T10:14:36.785Z,44.31
2022-10-31T10:17:23.487Z,44.29
2022-10-31T10:20:03.342Z,43.79
2022-10-31T10:22:36.099Z,44.06
2022-10-31T10:25:20.749Z,43.77
2022-10-31T10:28:04.597Z,42.23
2022-10-31T10:30:43.134Z,42.45
2022-10-31T10:33:14.429Z,42.30
2022-10-31T10:35:48.815Z,42.81
2022-10-31T10:38:24.929Z,42.11
2022-10-31T10:40:53.996Z,41.83
2022-10-31T10:43:40.218Z,42.07
2022-10-31T10:46:28.476Z,42.03
2022-10-31T10:49:14.081Z,41.44
2022-10-31T10:52:35.267Z,41.04
2022-10-31T10:55:23.987Z,40.38
2022-10-31T10:58:01.777Z,40.43
2022-10-31T11:00:33.230Z,40.08
2022-10-31T11:03:00.330Z,39.31
2022-10-31T11:05:48.217Z,38.98
2022-10-31T11:08:28.460Z,38.66
2022-10-31T11:11:18.262Z,39.18
2022-10-31T11:13:47.478Z,39.51
2022-10-31T11:16:43.571Z,39.63
2022-10-31T11:19:13.156Z,38.87
2022-10-31T11:21:39.795Z,37.45
2022-10-31T11:24:12.144Z,36.90
2022-10-31T11:26:40.451Z,37.08
2022-10-31T11:29:15.673Z,37.94
2022-10-31T11:31:44.247Z,38.26
2022-10-31T11:34:28.654Z,38.24
2022-10-31T11:36:58.226Z,38.75
2022-10-31T11:39:25.719Z,37.64
2022-10-31T11:41:54.341Z,37.06
2022-10-31T11:44:27.807Z,37.77
2022-10-31T11:47:01.206Z,38.05
2022-10-31T11:49:37.349Z,38.47
2022-10-31T11:52:21.701Z,37.88
2022-10-31T11:55:01.794Z,37.93
2022-10-31T11:57:32.767Z,37.73
2022-10-31T12:00:05.747Z,38.20
2022-10-31T12:02:32.660Z,37.77
2022-10-31T12:05:12.186Z,37.70
2022-10-31T12:07:38.862Z,37.22
2022-10-31T12:10:12.817Z,36.36
2022-10-31T12:13:09.788Z,36.24
2022-10-31T12:15:39.208Z,35.90
2022-10-31T12:18:28.409Z,36.70
2022-10-31T12:21:00.900Z,37.40
2022-10-31T12:23:39.404Z,37.23
2022-10-31T12:26:30.143Z,37.21
2022-10-31T12:29:34.551Z,37.26
2022-10-31T12:32:22.548Z,38.42
2022-10-31T12:34:56.820Z,38.05
2022-10-31T12:37:49.355Z,38.01
2022-10-31T12:40:41.280Z,37.00
2022-10-31T12:43:16.752Z,36.84
2022-10-31T12:45:59.110Z,37.21
2022-10-31T12:48:34.310Z,36.47
2022-10-31T12:51:24.550Z,36.74
2022-10-31T12:53:57.728Z,36.24
2022-10-31T12:56:39.211Z,36.19
2022-10-31T12:59:32.545Z,35.06
2022-10-31T13:02:14.621Z,35.02
2022-10-31T13:04:57.624Z,34.30
2022-10-31T13:07:48.736Z,33.93
2022-10-31T13:10:20.575Z,33.60
2022-10-31T13:12:50.292Z,33.16
2022-10-31T13:15:28.150Z,33.40
2022-10-31T13:17:58.597Z,33.11
2022-10-31T13:20:34.072Z,33.28
2022-10-31T13:23:49.159Z,34.00
2022-10-31T13:26:14.132Z,34.73
2022-10-31T13:29:01.307Z,34.72
2022-10-31T13:31:28.485Z,34.83
2022-10-31T13:34:00.476Z,35.52
2022-10-31T13:36:50.498Z,35.66
2022-10-31T13:39:25.045Z,35.44
2022-10-31T13:42:03.123Z,35.39
2022-10-31T13:44:35.862Z,34.40
2022-10-31T13:47:05.210Z,34.66
2022-10-31T13:49:31.840Z,33.91
2022-10-31T13:52:10.397Z,34.01
2022-10-31T13:54:38.539Z,33.93
2022-10-31T13:57:17.032Z,33.91
2022-10-31T13:59:55.807Z,34.15
2022-10-31T14:02:37.076Z,33.99
2022-10-31T14:05:34.427Z,34.03
2022-10-31T14:08:06.814Z,33.99
2022-10-31T14:10:47.839Z,34.23
2022-10-31T14:13:35.445Z,34.22
2022-10-31T14:16:07.859Z,34.67
2022-10-31T14:18:40.418Z,34.94
2022-10-31T14:21:23.571Z,34.92
2022-10-31T14:23:54.128Z,35.26
2022-10-31T14:26:27.633Z,35.29
2022-10-31T14:28:57.171Z,35.40
2022-10-31T14:31:37.976Z,35.59
2022-10-31T14:34:35.691Z,35.23
2022-10-31T14:37:26.989Z,35.05
2022-10-31T14:40:27.915Z,34.61
2022-10-31T14:43:13.169Z,34.76
2022-10-31T14:46:17.168Z,34.84
2022-10-31T14:49:03.690Z,33.04
2022-10-31T14:51:39.615Z,33.14
2022-10-31T14:54:12.110Z,34.57
2022-10-31T14:56:48.014Z,35.31
2022-10-31T14:59:20.119Z,36.14
2022-10-31T15:02:03.196Z,37.13
2022-10-31T15:04:33.666Z,37.37
2022-10-31T15:07:24.353Z,38.37
2022-10-31T15:10:04.293Z,39.05
2022-10-31T15:12:32.610Z,39.50
2022-10-31T15:15:12.590Z,40.08
2022-10-31T15:17:45.519Z,40.20
2022-10-31T15:20:13.481Z,40.57
2022-10-31T15:22:40.275Z,40.69
2022-10-31T15:25:14.619Z,40.66
2022-10-31T15:27:41.777Z,41.00
2022-10-31T15:30:21.230Z,41.44
2022-10-31T15:32:57.577Z,41.64
2022-10-31T15:35:30.754Z,41.95
2022-10-31T15:38:00.058Z,42.28
2022-10-31T15:40:28.020Z,42.65
2022-10-31T15:43:02.945Z,42.22
2022-10-31T15:45:31.660Z,43.01
2022-10-31T15:48:02.152Z,43.10
2022-10-31T15:50:42.173Z,42.86
2022-10-31T15:53:20.621Z,42.96
2022-10-31T15:55:54.508Z,42.98
2022-10-31T15:58:21.736Z,43.32
2022-10-31T16:01:00.341Z,43.75
2022-10-31T16:03:32.267Z,44.10
2022-10-31T16:06:00.217Z,44.18
2022-10-31T16:08:29.730Z,44.21
2022-10-31T16:10:58.804Z,44.35
2022-10-31T16:13:29.278Z,44.39
2022-10-31T16:16:28.770Z,44.39
2022-10-31T16:18:47.830Z,44.35
2022-10-31T16:21:14.774Z,44.72
2022-10-31T16:23:50.643Z,44.85
2022-10-31T16:26:19.553Z,44.95
2022-10-31T16:29:02.603Z,44.79
2022-10-31T16:31:36.881Z,45.27
2022-10-31T16:34:26.030Z,46.11
2022-10-31T16:36:53.646Z,46.25
2022-10-31T16:39:20.514Z,46.62
2022-10-31T16:41:53.362Z,47.23
2022-10-31T16:44:25.710Z,47.46
2022-10-31T16:47:11.172Z,47.98
2022-10-31T16:49:37.774Z,48.03
2022-10-31T16:52:04.409Z,48.00
2022-10-31T16:54:31.041Z,48.53
2022-10-31T16:57:00.756Z,48.49
2022-10-31T16:59:28.251Z,48.43
2022-10-31T17:01:55.981Z,48.62
2022-10-31T17:04:22.974Z,49.31
2022-10-31T17:06:49.557Z,50.22
2022-10-31T17:09:16.164Z,50.80
2022-10-31T17:11:49.614Z,51.11
2022-10-31T17:14:17.360Z,51.27
2022-10-31T17:16:44.185Z,51.79
2022-10-31T17:19:11.922Z,52.44
2022-10-31T17:21:39.400Z,52.98
2022-10-31T17:24:06.826Z,53.29
2022-10-31T17:26:33.662Z,53.69
2022-10-31T17:29:02.041Z,54.12
2022-10-31T17:31:31.810Z,54.96
2022-10-31T17:34:01.995Z,55.57
2022-10-31T17:36:30.495Z,56.21
2022-10-31T17:38:57.327Z,56.58
2022-10-31T17:41:23.930Z,56.92
2022-10-31T17:43:55.614Z,57.81
2022-10-31T17:46:22.233Z,58.12
2022-10-31T17:48:48.878Z,58.46
2022-10-31T17:51:15.465Z,58.56
2022-10-31T17:53:42.075Z,58.57
2022-10-31T17:56:09.559Z,58.81
2022-10-31T17:58:37.176Z,59.20
2022-10-31T18:01:09.820Z,59.54
2022-10-31T18:03:36.691Z,59.69
2022-10-31T18:06:03.371Z,59.97
2022-10-31T18:08:35.132Z,60.33
2022-10-31T18:11:09.190Z,61.02
2022-10-31T18:13:37.807Z,60.97
2022-10-31T18:16:12.366Z,62.35
2022-10-31T18:18:39.625Z,63.20
2022-10-31T18:21:06.493Z,63.48
2022-10-31T18:23:33.394Z,65.44
2022-10-31T18:26:00.065Z,66.45
2022-10-31T18:28:26.652Z,70.45
2022-10-31T18:30:53.496Z,72.10
2022-10-31T18:33:20.209Z,73.77
2022-10-31T18:35:46.839Z,74.74
2022-10-31T18:38:13.470Z,75.86
2022-10-31T18:40:40.161Z,78.46
2022-10-31T18:43:06.784Z,80.45
2022-10-31T18:45:45.879Z,82.29
2022-10-31T18:48:15.751Z,84.57
2022-10-31T18:50:42.978Z,86.17
2022-10-31T18:53:09.684Z,86.69
2022-10-31T18:55:45.713Z,86.96
2022-10-31T18:58:16.996Z,87.25
2022-10-31T19:00:43.807Z,88.42
2022-10-31T19:03:10.471Z,87.43
2022-10-31T19:05:37.157Z,88.04
2022-10-31T19:08:04.354Z,90.99
2022-10-31T19:10:31.313Z,89.16
2022-10-31T19:12:58.018Z,88.68
2022-10-31T19:15:26.124Z,90.09
2022-10-31T19:17:52.689Z,87.99
2022-10-31T19:20:19.555Z,87.46
2022-10-31T19:22:46.284Z,86.74
2022-10-31T19:25:13.126Z,86.35
2022-10-31T19:27:39.975Z,86.12
2022-10-31T19:30:07.705Z,85.05
2022-10-31T19:32:34.612Z,84.27
2022-10-31T19:35:01.303Z,85.38
2022-10-31T19:37:27.966Z,86.62
2022-10-31T19:39:54.713Z,88.58
2022-10-31T19:42:21.324Z,90.04
2022-10-31T19:44:47.933Z,89.60
2022-10-31T19:47:15.519Z,89.81
2022-10-31T19:49:42.065Z,91.78
2022-10-31T19:52:08.623Z,91.87
2022-10-31T19:54:35.335Z,91.64
2022-10-31T19:57:01.913Z,92.01
2022-10-31T19:59:28.728Z,93.40
2022-10-31T20:01:55.400Z,93.22
2022-10-31T20:04:22.108Z,92.78
2022-10-31T20:06:48.758Z,92.80
2022-10-31T20:09:16.952Z,92.56
2022-10-31T20:11:45.727Z,93.48
2022-10-31T20:14:14.492Z,95.33
2022-10-31T20:16:41.630Z,95.11
2022-10-31T20:19:08.947Z,96.12
2022-10-31T20:21:37.914Z,97.20
2022-10-31T20:24:07.790Z,97.61
2022-10-31T20:26:35.470Z,98.00
2022-10-31T20:29:03.641Z,98.09
2022-10-31T20:31:33.671Z,98.34
2022-10-31T20:34:00.549Z,98.20
2022-10-31T20:36:29.534Z,98.22
2022-10-31T20:38:56.138Z,100.00
2022-10-31T20:41:22.849Z,100.00
2022-10-31T20:43:49.495Z,100.00
2022-10-31T20:46:17.863Z,100.00
2022-10-31T20:48:44.931Z,100.00
2022-10-31T20:51:21.155Z,100.00
2022-10-31T20:53:49.156Z,100.00
2022-10-31T20:56:18.201Z,100.00
2022-10-31T20:58:45.056Z,100.00
2022-10-31T21:01:23.097Z,100.00
2022-10-31T21:03:50.400Z,100.00
2022-10-31T21:06:18.694Z,100.00
2022-10-31T21:08:45.812Z,100.00
2022-10-31T21:11:17.997Z,100.00
2022-10-31T21:13:46.008Z,100.00
2022-10-31T21:16:18.603Z,100.00
2022-10-31T21:18:46.844Z,100.00
2022-10-31T21:21:19.436Z,100.00
2022-10-31T21:23:46.954Z,100.00
2022-10-31T21:26:21.715Z,100.00
2022-10-31T21:28:49.717Z,100.00
2022-10-31T21:31:17.839Z,100.00
2022-10-31T21:33:45.762Z,100.00
2022-10-31T21:36:13.422Z,100.00
2022-10-31T21:38:40.778Z,100.00
2022-10-31T21:41:13.529Z,100.00
2022-10-31T21:43:43.177Z,100.00
2022-10-31T21:46:15.607Z,100.00
2022-10-31T21:48:43.533Z,100.00
2022-10-31T21:51:14.105Z,100.00
2022-10-31T21:54:04.312Z,100.00
2022-10-31T21:56:31.487Z,100.00
2022-10-31T21:58:58.448Z,100.00
2022-10-31T22:01:27.501Z,100.00
2022-10-31T22:03:54.763Z,100.00
2022-10-31T22:06:21.943Z,100.00
2022-10-31T22:08:48.994Z,100.00
2022-10-31T22:11:17.608Z,100.00
2022-10-31T22:13:47.060Z,100.00
2022-10-31T22:16:16.100Z,100.00
2022-10-31T22:18:43.800Z,100.00
2022-10-31T22:21:19.606Z,100.00
2022-10-31T22:23:53.879Z,100.00
2022-10-31T22:26:21.356Z,100.00
2022-10-31T22:28:50.847Z,100.00
2022-10-31T22:31:20.965Z,100.00
2022-10-31T22:33:48.308Z,100.00
2022-10-31T22:36:19.860Z,100.00
2022-10-31T22:38:47.781Z,100.00
2022-10-31T22:41:17.139Z,100.00
2022-10-31T22:43:44.012Z,100.00
2022-10-31T22:46:13.759Z,100.00
2022-10-31T22:48:49.827Z,100.00
2022-10-31T22:51:19.517Z,100.00
2022-10-31T22:53:46.950Z,100.00
2022-10-31T22:56:19.763Z,100.00
2022-10-31T22:58:47.607Z,100.00
2022-10-31T23:01:20.217Z,100.00
2022-10-31T23:03:47.170Z,100.00
2022-10-31T23:06:16.479Z,100.00
2022-10-31T23:08:43.773Z,100.00
2022-10-31T23:11:26.904Z,100.00
2022-10-31T23:14:15.902Z,100.00
2022-10-31T23:16:53.945Z,100.00
2022-10-31T23:19:27.790Z,100.00
2022-10-31T23:22:00.154Z,100.00
2022-10-31T23:24:33.745Z,100.00
2022-10-31T23:27:08.531Z,100.00
2022-10-31T23:29:51.494Z,100.00
2022-10-31T23:32:28.316Z,100.00
2022-10-31T23:34:57.372Z,100.00
2022-10-31T23:37:26.813Z,100.00
2022-10-31T23:39:53.716Z,100.00
2022-10-31T23:42:20.899Z,100.00
2022-10-31T23:44:49.016Z,100.00
2022-10-31T23:47:16.681Z,100.00
2022-10-31T23:49:43.450Z,100.00
2022-10-31T23:52:10.496Z,100.00
2022-10-31T23:54:37.640Z,100.00
2022-10-31T23:57:04.733Z,100.00
2022-10-31T23:59:31.471Z,100.00
